sensor_id;sensor_type;location;lat;lon;timestamp;pressure;altitude;pressure_sealevel;temperature;humidity
20037;BME280;10179;42.640;23.312;2024-03-08T00:00:22;93445.44;;;7.55;60.42
20037;BME280;10179;42.640;23.312;2024-03-08T00:02:48;93704.94;;;9.15;60.52
20037;BME280;10179;42.640;23.312;2024-03-08T00:05:16;93655.25;;;8.77;60.55
20037;BME280;10179;42.640;23.312;2024-03-08T00:07:41;93720.41;;;9.23;60.70
20037;BME280;10179;42.640;23.312;2024-03-08T00:10:09;93722.44;;;9.21;60.60
20037;BME280;10179;42.640;23.312;2024-03-08T00:12:37;93357.03;;;6.88;60.84
20037;BME280;10179;42.640;23.312;2024-03-08T00:15:03;93733.75;;;9.15;60.98
20037;BME280;10179;42.640;23.312;2024-03-08T00:17:28;93717.47;;;9.13;61.13
20037;BME280;10179;42.640;23.312;2024-03-08T00:19:53;93716.13;;;9.04;60.99
20037;BME280;10179;42.640;23.312;2024-03-08T00:22:19;93640.97;;;8.48;61.14
20037;BME280;10179;42.640;23.312;2024-03-08T00:24:44;93707.22;;;9.05;61.05
20037;BME280;10179;42.640;23.312;2024-03-08T00:27:10;93716.44;;;9.14;61.02
20037;BME280;10179;42.640;23.312;2024-03-08T00:29:37;93596.56;;;8.34;60.90
20037;BME280;10179;42.640;23.312;2024-03-08T00:32:04;93708.44;;;9.09;60.96
20037;BME280;10179;42.640;23.312;2024-03-08T00:34:29;93669.94;;;8.84;61.16
20037;BME280;10179;42.640;23.312;2024-03-08T00:36:55;93721.94;;;9.06;61.15
20037;BME280;10179;42.640;23.312;2024-03-08T00:39:20;93706.81;;;9.08;61.25
20037;BME280;10179;42.640;23.312;2024-03-08T00:41:46;93675.91;;;8.92;61.04
20037;BME280;10179;42.640;23.312;2024-03-08T00:44:12;93706.81;;;9.08;61.05
20037;BME280;10179;42.640;23.312;2024-03-08T00:46:38;93339.00;;;6.80;60.96
20037;BME280;10179;42.640;23.312;2024-03-08T00:49:03;93623.00;;;8.58;61.25
20037;BME280;10179;42.640;23.312;2024-03-08T00:51:29;93701.84;;;9.00;61.32
20037;BME280;10179;42.640;23.312;2024-03-08T00:53:55;93673.97;;;8.80;61.13
20037;BME280;10179;42.640;23.312;2024-03-08T00:56:20;93690.94;;;8.78;61.20
20037;BME280;10179;42.640;23.312;2024-03-08T00:58:45;93690.88;;;8.84;61.34
20037;BME280;10179;42.640;23.312;2024-03-08T01:01:13;93696.97;;;8.78;61.55
20037;BME280;10179;42.640;23.312;2024-03-08T01:03:42;93538.19;;;7.77;61.53
20037;BME280;10179;42.640;23.312;2024-03-08T01:06:08;93681.50;;;8.70;61.73
20037;BME280;10179;42.640;23.312;2024-03-08T01:08:34;93681.72;;;8.69;61.76
20037;BME280;10179;42.640;23.312;2024-03-08T01:10:59;93675.09;;;8.66;61.96
20037;BME280;10179;42.640;23.312;2024-03-08T01:13:24;93676.34;;;8.64;62.05
20037;BME280;10179;42.640;23.312;2024-03-08T01:15:50;93679.75;;;8.64;62.13
20037;BME280;10179;42.640;23.312;2024-03-08T01:18:15;93630.41;;;8.29;61.92
20037;BME280;10179;42.640;23.312;2024-03-08T01:20:40;93610.72;;;8.20;62.27
20037;BME280;10179;42.640;23.312;2024-03-08T01:23:06;93671.28;;;8.62;62.34
20037;BME280;10179;42.640;23.312;2024-03-08T01:25:35;93669.69;;;8.61;62.31
20037;BME280;10179;42.640;23.312;2024-03-08T01:28:00;93558.59;;;7.94;62.42
20037;BME280;10179;42.640;23.312;2024-03-08T01:30:26;93659.22;;;8.61;62.14
20037;BME280;10179;42.640;23.312;2024-03-08T01:32:51;93665.97;;;8.75;62.17
20037;BME280;10179;42.640;23.312;2024-03-08T01:35:16;93666.81;;;8.69;61.68
20037;BME280;10179;42.640;23.312;2024-03-08T01:37:43;93662.78;;;8.67;61.87
20037;BME280;10179;42.640;23.312;2024-03-08T01:40:09;93665.63;;;8.65;61.37
20037;BME280;10179;42.640;23.312;2024-03-08T01:42:34;93618.91;;;7.99;61.89
20037;BME280;10179;42.640;23.312;2024-03-08T01:45:05;93665.63;;;8.65;61.85
20037;BME280;10179;42.640;23.312;2024-03-08T01:47:31;93657.78;;;8.65;61.78
20037;BME280;10179;42.640;23.312;2024-03-08T01:49:59;93584.63;;;8.13;61.77
20037;BME280;10179;42.640;23.312;2024-03-08T01:52:27;93519.09;;;7.77;61.52
20037;BME280;10179;42.640;23.312;2024-03-08T01:54:54;93651.19;;;8.56;61.73
20037;BME280;10179;42.640;23.312;2024-03-08T01:57:20;93575.41;;;8.11;61.84
20037;BME280;10179;42.640;23.312;2024-03-08T01:59:46;93645.28;;;8.67;62.04
20037;BME280;10179;42.640;23.312;2024-03-08T02:02:11;93673.13;;;8.87;61.58
20037;BME280;10179;42.640;23.312;2024-03-08T02:04:40;93675.91;;;8.92;61.95
20037;BME280;10179;42.640;23.312;2024-03-08T02:07:05;93655.13;;;8.97;61.60
20037;BME280;10179;42.640;23.312;2024-03-08T02:09:31;93580.16;;;8.52;61.56
20037;BME280;10179;42.640;23.312;2024-03-08T02:11:57;93574.72;;;8.54;61.44
20037;BME280;10179;42.640;23.312;2024-03-08T02:14:22;93659.22;;;9.11;61.52
20037;BME280;10179;42.640;23.312;2024-03-08T02:16:48;93632.34;;;8.97;61.46
20037;BME280;10179;42.640;23.312;2024-03-08T02:19:14;93588.97;;;8.58;61.36
20037;BME280;10179;42.640;23.312;2024-03-08T02:21:39;93658.38;;;9.17;61.33
20037;BME280;10179;42.640;23.312;2024-03-08T02:24:05;93707.13;;;9.18;60.88
20037;BME280;10179;42.640;23.312;2024-03-08T02:26:31;93608.69;;;8.86;60.96
20037;BME280;10179;42.640;23.312;2024-03-08T02:28:56;93661.13;;;9.22;60.91
20037;BME280;10179;42.640;23.312;2024-03-08T02:31:21;93666.38;;;9.22;60.95
20037;BME280;10179;42.640;23.312;2024-03-08T02:33:47;93668.00;;;9.23;60.70
20037;BME280;10179;42.640;23.312;2024-03-08T02:36:13;93666.38;;;9.22;60.85
20037;BME280;10179;42.640;23.312;2024-03-08T02:38:38;93583.03;;;8.69;60.79
20037;BME280;10179;42.640;23.312;2024-03-08T02:41:06;93575.22;;;8.63;60.55
20037;BME280;10179;42.640;23.312;2024-03-08T02:43:31;93680.06;;;9.24;60.26
20037;BME280;10179;42.640;23.312;2024-03-08T02:45:57;93654.84;;;9.05;60.40
20037;BME280;10179;42.640;23.312;2024-03-08T02:48:22;93675.13;;;9.16;60.50
20037;BME280;10179;42.640;23.312;2024-03-08T02:50:48;93673.91;;;9.12;60.54
20037;BME280;10179;42.640;23.312;2024-03-08T02:53:13;93671.75;;;9.09;60.27
20037;BME280;10179;42.640;23.312;2024-03-08T02:55:40;93676.16;;;9.08;60.18
20037;BME280;10179;42.640;23.312;2024-03-08T02:58:06;93587.63;;;8.49;60.40
20037;BME280;10179;42.640;23.312;2024-03-08T03:00:35;93679.44;;;9.04;60.45
20037;BME280;10179;42.640;23.312;2024-03-08T03:03:01;93601.44;;;8.56;60.16
20037;BME280;10179;42.640;23.312;2024-03-08T03:05:28;93667.47;;;8.90;60.07
20037;BME280;10179;42.640;23.312;2024-03-08T03:07:54;93575.72;;;8.21;59.99
20037;BME280;10179;42.640;23.312;2024-03-08T03:10:20;93697.69;;;8.92;59.98
20037;BME280;10179;42.640;23.312;2024-03-08T03:12:47;93581.03;;;8.08;60.20
20037;BME280;10179;42.640;23.312;2024-03-08T03:15:16;93609.72;;;8.21;60.17
20037;BME280;10179;42.640;23.312;2024-03-08T03:17:49;92826.78;;;3.40;60.12
20037;BME280;10179;42.640;23.312;2024-03-08T03:20:18;93686.81;;;8.89;60.38
20037;BME280;10179;42.640;23.312;2024-03-08T03:22:58;93688.41;;;8.90;59.81
20037;BME280;10179;42.640;23.312;2024-03-08T03:25:26;93686.06;;;8.81;59.67
20037;BME280;10179;42.640;23.312;2024-03-08T03:27:54;93701.28;;;8.91;59.60
20037;BME280;10179;42.640;23.312;2024-03-08T03:30:25;93656.19;;;8.64;59.43
20037;BME280;10179;42.640;23.312;2024-03-08T03:32:52;93695.38;;;9.02;59.18
20037;BME280;10179;42.640;23.312;2024-03-08T03:35:20;93657.47;;;8.80;59.24
20037;BME280;10179;42.640;23.312;2024-03-08T03:37:48;93699.53;;;9.10;58.85
20037;BME280;10179;42.640;23.312;2024-03-08T03:40:29;93704.13;;;9.15;58.75
20037;BME280;10179;42.640;23.312;2024-03-08T03:42:55;93620.53;;;8.63;58.66
20037;BME280;10179;42.640;23.312;2024-03-08T03:45:21;93658.25;;;8.80;58.60
20037;BME280;10179;42.640;23.312;2024-03-08T03:47:46;93708.34;;;9.16;58.67
20037;BME280;10179;42.640;23.312;2024-03-08T03:50:12;93710.34;;;9.20;58.58
20037;BME280;10179;42.640;23.312;2024-03-08T03:52:37;93706.69;;;9.21;58.32
20037;BME280;10179;42.640;23.312;2024-03-08T03:55:04;93706.34;;;9.18;58.20
20037;BME280;10179;42.640;23.312;2024-03-08T03:57:30;93711.16;;;9.21;58.27
20037;BME280;10179;42.640;23.312;2024-03-08T03:59:55;93622.53;;;8.68;58.15
20037;BME280;10179;42.640;23.312;2024-03-08T04:02:24;93708.91;;;9.24;58.08
20037;BME280;10179;42.640;23.312;2024-03-08T04:04:49;93694.69;;;9.14;57.79
20037;BME280;10179;42.640;23.312;2024-03-08T04:07:14;93721.56;;;9.27;57.90
20037;BME280;10179;42.640;23.312;2024-03-08T04:09:40;93720.78;;;9.27;57.85
20037;BME280;10179;42.640;23.312;2024-03-08T04:12:06;93714.72;;;9.26;57.70
20037;BME280;10179;42.640;23.312;2024-03-08T04:14:32;93721.56;;;9.27;57.59
20037;BME280;10179;42.640;23.312;2024-03-08T04:16:58;93646.03;;;8.74;57.46
20037;BME280;10179;42.640;23.312;2024-03-08T04:19:23;93708.03;;;9.05;57.43
20037;BME280;10179;42.640;23.312;2024-03-08T04:21:49;93661.47;;;8.82;57.36
20037;BME280;10179;42.640;23.312;2024-03-08T04:24:15;93729.63;;;9.26;57.29
20037;BME280;10179;42.640;23.312;2024-03-08T04:26:42;93683.19;;;8.90;56.98
20037;BME280;10179;42.640;23.312;2024-03-08T04:29:07;93733.94;;;9.20;56.78
20037;BME280;10179;42.640;23.312;2024-03-08T04:31:33;93620.31;;;8.40;56.47
20037;BME280;10179;42.640;23.312;2024-03-08T04:33:58;93692.91;;;8.82;56.51
20037;BME280;10179;42.640;23.312;2024-03-08T04:36:23;93751.34;;;9.08;56.72
20037;BME280;10179;42.640;23.312;2024-03-08T04:38:50;93749.31;;;9.10;56.74
20037;BME280;10179;42.640;23.312;2024-03-08T04:41:16;93754.34;;;9.12;56.47
20037;BME280;10179;42.640;23.312;2024-03-08T04:43:42;93748.31;;;9.11;56.11
20037;BME280;10179;42.640;23.312;2024-03-08T04:46:08;93745.53;;;9.06;55.74
20037;BME280;10179;42.640;23.312;2024-03-08T04:48:33;93363.84;;;6.44;55.90
20037;BME280;10179;42.640;23.312;2024-03-08T04:51:02;93749.56;;;9.02;55.83
20037;BME280;10179;42.640;23.312;2024-03-08T04:53:28;93743.09;;;9.04;55.77
20037;BME280;10179;42.640;23.312;2024-03-08T04:55:54;93747.31;;;9.05;55.67
20037;BME280;10179;42.640;23.312;2024-03-08T04:58:20;93712.72;;;8.72;55.58
20037;BME280;10179;42.640;23.312;2024-03-08T05:00:46;93752.38;;;9.07;55.75
20037;BME280;10179;42.640;23.312;2024-03-08T05:03:11;93765.88;;;9.04;55.01
20037;BME280;10179;42.640;23.312;2024-03-08T05:05:37;93763.72;;;8.94;54.83
20037;BME280;10179;42.640;23.312;2024-03-08T05:08:02;93748.13;;;8.81;55.21
20037;BME280;10179;42.640;23.312;2024-03-08T05:10:28;93701.41;;;8.46;55.20
20037;BME280;10179;42.640;23.312;2024-03-08T05:12:53;93764.53;;;8.95;55.50
20037;BME280;10179;42.640;23.312;2024-03-08T05:15:18;93762.66;;;9.02;54.94
20037;BME280;10179;42.640;23.312;2024-03-08T05:17:46;93722.34;;;8.78;54.84
20037;BME280;10179;42.640;23.312;2024-03-08T05:20:11;93771.59;;;9.19;54.81
20037;BME280;10179;42.640;23.312;2024-03-08T05:22:38;93770.34;;;9.28;54.46
20037;BME280;10179;42.640;23.312;2024-03-08T05:25:05;93759.09;;;9.21;53.96
20037;BME280;10179;42.640;23.312;2024-03-08T05:27:33;93782.97;;;9.38;54.14
20037;BME280;10179;42.640;23.312;2024-03-08T05:29:59;93730.56;;;9.13;54.18
20037;BME280;10179;42.640;23.312;2024-03-08T05:32:25;93792.72;;;9.56;53.63
20037;BME280;10179;42.640;23.312;2024-03-08T05:34:50;93797.94;;;9.56;53.36
20037;BME280;10179;42.640;23.312;2024-03-08T05:37:15;93466.44;;;7.35;53.71
20037;BME280;10179;42.640;23.312;2024-03-08T05:39:41;93703.84;;;8.98;53.84
20037;BME280;10179;42.640;23.312;2024-03-08T05:42:06;93721.25;;;9.17;53.97
20037;BME280;10179;42.640;23.312;2024-03-08T05:44:34;93633.16;;;8.73;54.02
20037;BME280;10179;42.640;23.312;2024-03-08T05:46:59;93784.44;;;9.77;53.58
20037;BME280;10179;42.640;23.312;2024-03-08T05:49:25;93772.47;;;9.63;53.29
20037;BME280;10179;42.640;23.312;2024-03-08T05:51:50;93810.06;;;10.00;53.41
20037;BME280;10179;42.640;23.312;2024-03-08T05:54:16;93815.22;;;10.07;52.79
20037;BME280;10179;42.640;23.312;2024-03-08T05:56:42;93745.09;;;9.59;52.32
20037;BME280;10179;42.640;23.312;2024-03-08T05:59:08;93800.06;;;9.91;52.54
20037;BME280;10179;42.640;23.312;2024-03-08T06:01:34;93795.09;;;9.83;52.75
20037;BME280;10179;42.640;23.312;2024-03-08T06:04:02;93806.59;;;9.82;52.42
20037;BME280;10179;42.640;23.312;2024-03-08T06:06:27;93834.19;;;10.09;52.46
20037;BME280;10179;42.640;23.312;2024-03-08T06:08:53;93837.78;;;10.15;52.65
20037;BME280;10179;42.640;23.312;2024-03-08T06:11:19;93727.00;;;9.51;52.42
20037;BME280;10179;42.640;23.312;2024-03-08T06:13:46;93810.34;;;10.11;52.12
20037;BME280;10179;42.640;23.312;2024-03-08T06:16:11;93787.25;;;10.01;52.36
20037;BME280;10179;42.640;23.312;2024-03-08T06:18:37;93838.47;;;10.47;52.06
20037;BME280;10179;42.640;23.312;2024-03-08T06:21:03;93839.78;;;10.56;51.70
20037;BME280;10179;42.640;23.312;2024-03-08T06:23:33;93726.75;;;9.77;50.86
20037;BME280;10179;42.640;23.312;2024-03-08T06:26:00;93789.44;;;10.04;50.75
20037;BME280;10179;42.640;23.312;2024-03-08T06:28:26;93748.66;;;9.65;51.18
20037;BME280;10179;42.640;23.312;2024-03-08T06:30:51;93806.91;;;9.92;51.36
20037;BME280;10179;42.640;23.312;2024-03-08T06:33:17;93784.72;;;9.69;51.63
20037;BME280;10179;42.640;23.312;2024-03-08T06:35:43;93802.59;;;9.54;52.09
20037;BME280;10179;42.640;23.312;2024-03-08T06:38:08;93849.75;;;9.86;52.12
20037;BME280;10179;42.640;23.312;2024-03-08T06:40:34;93785.25;;;9.28;52.10
20037;BME280;10179;42.640;23.312;2024-03-08T06:43:00;93863.97;;;9.46;52.37
20037;BME280;10179;42.640;23.312;2024-03-08T06:45:25;93864.19;;;9.45;52.54
20037;BME280;10179;42.640;23.312;2024-03-08T06:47:51;93820.50;;;9.00;53.21
20037;BME280;10179;42.640;23.312;2024-03-08T06:50:17;93866.13;;;9.24;53.40
20037;BME280;10179;42.640;23.312;2024-03-08T06:52:42;93860.31;;;9.16;53.92
20037;BME280;10179;42.640;23.312;2024-03-08T06:55:09;93731.88;;;8.21;54.24
20037;BME280;10179;42.640;23.312;2024-03-08T06:57:40;93867.22;;;9.10;54.62
20037;BME280;10179;42.640;23.312;2024-03-08T07:00:08;93864.22;;;9.06;54.41
20037;BME280;10179;42.640;23.312;2024-03-08T07:02:44;93864.22;;;9.06;54.73
20037;BME280;10179;42.640;23.312;2024-03-08T07:05:11;93845.56;;;8.90;54.70
20037;BME280;10179;42.640;23.312;2024-03-08T07:07:37;93848.56;;;8.93;54.89
20037;BME280;10179;42.640;23.312;2024-03-08T07:10:03;93790.09;;;8.68;54.85
20037;BME280;10179;42.640;23.312;2024-03-08T07:12:29;93840.31;;;8.90;54.73
20037;BME280;10179;42.640;23.312;2024-03-08T07:14:55;93827.81;;;8.92;54.93
20037;BME280;10179;42.640;23.312;2024-03-08T07:17:20;93799.50;;;8.75;54.79
20037;BME280;10179;42.640;23.312;2024-03-08T07:19:46;93862.31;;;9.20;54.19
20037;BME280;10179;42.640;23.312;2024-03-08T07:22:11;93872.56;;;9.28;53.95
20037;BME280;10179;42.640;23.312;2024-03-08T07:24:37;93861.16;;;9.16;53.60
20037;BME280;10179;42.640;23.312;2024-03-08T07:27:21;93886.69;;;9.27;52.98
20037;BME280;10179;42.640;23.312;2024-03-08T07:29:46;93878.81;;;9.27;52.95
20037;BME280;10179;42.640;23.312;2024-03-08T07:32:12;93788.25;;;8.68;52.86
20037;BME280;10179;42.640;23.312;2024-03-08T07:34:49;93822.78;;;8.90;52.91
20037;BME280;10179;42.640;23.312;2024-03-08T07:37:16;93851.53;;;9.03;52.76
20037;BME280;10179;42.640;23.312;2024-03-08T07:39:41;93846.75;;;8.94;52.50
20037;BME280;10179;42.640;23.312;2024-03-08T07:42:07;93869.59;;;9.18;51.68
20037;BME280;10179;42.640;23.312;2024-03-08T07:44:32;93884.06;;;9.27;50.82
20037;BME280;10179;42.640;23.312;2024-03-08T07:46:59;93889.28;;;9.27;50.96
20037;BME280;10179;42.640;23.312;2024-03-08T07:49:24;93747.09;;;8.37;51.28
20037;BME280;10179;42.640;23.312;2024-03-08T07:51:50;93851.28;;;9.12;51.37
20037;BME280;10179;42.640;23.312;2024-03-08T07:54:17;93851.84;;;9.20;51.72
20037;BME280;10179;42.640;23.312;2024-03-08T07:56:42;93830.53;;;9.10;51.30
20037;BME280;10179;42.640;23.312;2024-03-08T07:59:07;93873.50;;;9.41;50.97
20037;BME280;10179;42.640;23.312;2024-03-08T08:01:33;93893.56;;;9.53;51.28
20037;BME280;10179;42.640;23.312;2024-03-08T08:03:59;93864.56;;;9.48;51.40
20037;BME280;10179;42.640;23.312;2024-03-08T08:06:26;93831.84;;;9.26;51.50
20037;BME280;10179;42.640;23.312;2024-03-08T08:08:52;93811.34;;;9.16;51.04
20037;BME280;10179;42.640;23.312;2024-03-08T08:11:17;93895.03;;;9.74;50.75
20037;BME280;10179;42.640;23.312;2024-03-08T08:13:43;93887.75;;;9.76;50.68
20037;BME280;10179;42.640;23.312;2024-03-08T08:16:09;93827.72;;;9.37;50.71
20037;BME280;10179;42.640;23.312;2024-03-08T08:18:34;93891.72;;;9.86;50.87
20037;BME280;10179;42.640;23.312;2024-03-08T08:21:00;93737.41;;;8.82;50.98
20037;BME280;10179;42.640;23.312;2024-03-08T08:23:26;93376.38;;;6.74;50.59
20037;BME280;10179;42.640;23.312;2024-03-08T08:25:51;93626.91;;;8.42;50.30
20037;BME280;10179;42.640;23.312;2024-03-08T08:28:17;93884.47;;;10.06;50.10
20037;BME280;10179;42.640;23.312;2024-03-08T08:30:44;93873.41;;;10.04;50.45
20037;BME280;10179;42.640;23.312;2024-03-08T08:33:10;93826.66;;;9.94;50.40
20037;BME280;10179;42.640;23.312;2024-03-08T08:35:36;93799.75;;;9.80;50.52
20037;BME280;10179;42.640;23.312;2024-03-08T08:38:03;93768.47;;;9.79;50.60
20037;BME280;10179;42.640;23.312;2024-03-08T08:40:29;93893.63;;;10.65;50.47
20037;BME280;10179;42.640;23.312;2024-03-08T08:42:56;93888.81;;;10.81;50.10
20037;BME280;10179;42.640;23.312;2024-03-08T08:45:23;93878.94;;;10.94;50.01
20037;BME280;10179;42.640;23.312;2024-03-08T08:47:48;93850.84;;;10.77;50.08
20037;BME280;10179;42.640;23.312;2024-03-08T08:50:15;93805.28;;;10.71;48.63
20037;BME280;10179;42.640;23.312;2024-03-08T08:52:41;93872.94;;;11.36;48.31
20037;BME280;10179;42.640;23.312;2024-03-08T08:55:09;93773.91;;;10.88;48.51
20037;BME280;10179;42.640;23.312;2024-03-08T08:57:42;93713.19;;;10.66;48.58
20037;BME280;10179;42.640;23.312;2024-03-08T09:00:08;93802.41;;;11.33;48.10
20037;BME280;10179;42.640;23.312;2024-03-08T09:02:33;93879.28;;;11.88;47.11
20037;BME280;10179;42.640;23.312;2024-03-08T09:04:59;93862.53;;;11.71;47.12
20037;BME280;10179;42.640;23.312;2024-03-08T09:07:26;93852.47;;;11.80;46.79
20037;BME280;10179;42.640;23.312;2024-03-08T09:09:53;93867.97;;;11.88;46.56
20037;BME280;10179;42.640;23.312;2024-03-08T09:12:22;93843.50;;;11.57;47.00
20037;BME280;10179;42.640;23.312;2024-03-08T09:14:47;93876.88;;;11.87;46.21
20037;BME280;10179;42.640;23.312;2024-03-08T09:17:13;93810.63;;;11.25;46.14
20037;BME280;10179;42.640;23.312;2024-03-08T09:19:42;93809.19;;;11.10;46.69
20037;BME280;10179;42.640;23.312;2024-03-08T09:22:08;93812.28;;;11.07;46.75
20037;BME280;10179;42.640;23.312;2024-03-08T09:24:33;93887.50;;;11.50;46.96
20037;BME280;10179;42.640;23.312;2024-03-08T09:26:59;93832.09;;;11.21;47.13
20037;BME280;10179;42.640;23.312;2024-03-08T09:29:24;93756.25;;;10.65;46.47
20037;BME280;10179;42.640;23.312;2024-03-08T09:31:49;93845.19;;;11.10;46.40
20037;BME280;10179;42.640;23.312;2024-03-08T09:34:15;93850.53;;;11.03;46.89
20037;BME280;10179;42.640;23.312;2024-03-08T09:36:40;93757.06;;;10.65;46.72
20037;BME280;10179;42.640;23.312;2024-03-08T09:39:06;93811.94;;;11.15;46.19
20037;BME280;10179;42.640;23.312;2024-03-08T09:41:33;93763.22;;;11.01;45.52
20037;BME280;10179;42.640;23.312;2024-03-08T09:43:59;93870.25;;;11.96;45.59
20037;BME280;10179;42.640;23.312;2024-03-08T09:46:25;93823.66;;;11.85;44.90
20037;BME280;10179;42.640;23.312;2024-03-08T09:48:52;93826.53;;;11.95;44.53
20037;BME280;10179;42.640;23.312;2024-03-08T09:51:21;93797.22;;;12.03;43.29
20037;BME280;10179;42.640;23.312;2024-03-08T09:53:51;93828.59;;;12.40;42.96
20037;BME280;10179;42.640;23.312;2024-03-08T09:56:16;93796.06;;;12.46;41.71
20037;BME280;10179;42.640;23.312;2024-03-08T09:58:42;93759.63;;;12.43;40.63
20037;BME280;10179;42.640;23.312;2024-03-08T10:01:22;93848.38;;;13.06;40.08
20037;BME280;10179;42.640;23.312;2024-03-08T10:03:48;93834.81;;;13.14;40.67
20037;BME280;10179;42.640;23.312;2024-03-08T10:06:14;93868.34;;;13.59;40.37
20037;BME280;10179;42.640;23.312;2024-03-08T10:08:39;93841.59;;;13.39;39.28
20037;BME280;10179;42.640;23.312;2024-03-08T10:11:05;93822.09;;;13.40;39.99
20037;BME280;10179;42.640;23.312;2024-03-08T10:13:31;93852.66;;;13.53;39.79
20037;BME280;10179;42.640;23.312;2024-03-08T10:15:57;93808.69;;;13.42;39.18
20037;BME280;10179;42.640;23.312;2024-03-08T10:18:22;93745.25;;;12.91;39.34
20037;BME280;10179;42.640;23.312;2024-03-08T10:21:05;93864.28;;;13.69;39.64
20037;BME280;10179;42.640;23.312;2024-03-08T10:23:31;93822.09;;;13.11;39.76
20037;BME280;10179;42.640;23.312;2024-03-08T10:26:09;93740.88;;;12.28;40.18
20037;BME280;10179;42.640;23.312;2024-03-08T10:28:34;93869.06;;;12.86;40.73
20037;BME280;10179;42.640;23.312;2024-03-08T10:31:00;93524.41;;;10.34;41.00
20037;BME280;10179;42.640;23.312;2024-03-08T10:33:25;93818.75;;;12.24;41.24
20037;BME280;10179;42.640;23.312;2024-03-08T10:35:51;93835.13;;;12.26;41.59
20037;BME280;10179;42.640;23.312;2024-03-08T10:38:19;93822.41;;;12.23;41.89
20037;BME280;10179;42.640;23.312;2024-03-08T10:40:46;93855.13;;;12.38;42.22
20037;BME280;10179;42.640;23.312;2024-03-08T10:43:21;93856.41;;;12.36;42.60
20037;BME280;10179;42.640;23.312;2024-03-08T10:45:53;93812.78;;;11.93;42.24
20037;BME280;10179;42.640;23.312;2024-03-08T10:48:30;93786.00;;;11.73;42.58
20037;BME280;10179;42.640;23.312;2024-03-08T10:51:02;93823.53;;;11.80;42.65
20037;BME280;10179;42.640;23.312;2024-03-08T10:53:29;93822.84;;;11.73;42.70
20037;BME280;10179;42.640;23.312;2024-03-08T10:55:56;93861.22;;;11.92;42.48
20037;BME280;10179;42.640;23.312;2024-03-08T10:58:24;93856.06;;;11.97;42.63
20037;BME280;10179;42.640;23.312;2024-03-08T11:00:54;93777.75;;;11.57;42.45
20037;BME280;10179;42.640;23.312;2024-03-08T11:06:05;93760.84;;;11.77;42.01
20037;BME280;10179;42.640;23.312;2024-03-08T11:08:31;93818.53;;;12.25;41.82
20037;BME280;10179;42.640;23.312;2024-03-08T11:10:59;93820.56;;;12.35;41.48
20037;BME280;10179;42.640;23.312;2024-03-08T11:13:33;93833.50;;;12.48;40.93
20037;BME280;10179;42.640;23.312;2024-03-08T11:16:06;93825.00;;;12.58;40.87
20037;BME280;10179;42.640;23.312;2024-03-08T11:18:33;93760.94;;;12.29;39.81
20037;BME280;10179;42.640;23.312;2024-03-08T11:21:02;93744.88;;;12.30;39.31
20037;BME280;10179;42.640;23.312;2024-03-08T11:23:32;93828.81;;;12.90;39.14
20037;BME280;10179;42.640;23.312;2024-03-08T11:25:59;93793.16;;;12.88;38.76
20037;BME280;10179;42.640;23.312;2024-03-08T11:28:25;93815.38;;;13.32;38.50
20037;BME280;10179;42.640;23.312;2024-03-08T11:33:27;93754.94;;;13.31;37.95
20037;BME280;10179;42.640;23.312;2024-03-08T11:36:21;93808.63;;;13.87;37.64
20037;BME280;10179;42.640;23.312;2024-03-08T11:38:48;93822.59;;;13.71;38.21
20037;BME280;10179;42.640;23.312;2024-03-08T11:41:21;93793.00;;;13.35;38.50
20037;BME280;10179;42.640;23.312;2024-03-08T11:43:49;93737.16;;;12.81;38.50
20037;BME280;10179;42.640;23.312;2024-03-08T11:46:16;93809.09;;;13.22;39.20
20037;BME280;10179;42.640;23.312;2024-03-08T11:48:43;93802.34;;;13.14;39.52
20037;BME280;10179;42.640;23.312;2024-03-08T11:51:11;93774.97;;;12.86;39.84
20037;BME280;10179;42.640;23.312;2024-03-08T11:53:37;93750.06;;;12.65;39.97
20037;BME280;10179;42.640;23.312;2024-03-08T11:56:13;93805.75;;;12.98;40.04
20037;BME280;10179;42.640;23.312;2024-03-08T11:58:39;93808.91;;;12.83;40.02
20037;BME280;10179;42.640;23.312;2024-03-08T12:01:10;93828.94;;;12.44;40.09
20037;BME280;10179;42.640;23.312;2024-03-08T12:03:41;93756.00;;;12.21;40.72
20037;BME280;10179;42.640;23.312;2024-03-08T12:06:10;93803.41;;;12.73;40.71
20037;BME280;10179;42.640;23.312;2024-03-08T12:08:36;93808.22;;;12.76;40.40
20037;BME280;10179;42.640;23.312;2024-03-08T12:11:04;93807.66;;;12.74;39.69
20037;BME280;10179;42.640;23.312;2024-03-08T12:13:33;93798.94;;;12.73;39.88
20037;BME280;10179;42.640;23.312;2024-03-08T12:16:00;93787.19;;;12.64;40.00
20037;BME280;10179;42.640;23.312;2024-03-08T12:18:26;93780.31;;;12.63;39.95
20037;BME280;10179;42.640;23.312;2024-03-08T12:21:04;93800.41;;;12.81;39.77
20037;BME280;10179;42.640;23.312;2024-03-08T12:23:31;93698.31;;;12.19;39.50
20037;BME280;10179;42.640;23.312;2024-03-08T12:25:56;93798.09;;;12.84;39.06
20037;BME280;10179;42.640;23.312;2024-03-08T12:28:22;93737.28;;;12.46;38.90
20037;BME280;10179;42.640;23.312;2024-03-08T12:30:51;93752.13;;;12.63;38.98
20037;BME280;10179;42.640;23.312;2024-03-08T12:33:19;93790.31;;;12.89;38.95
20037;BME280;10179;42.640;23.312;2024-03-08T12:35:55;93781.88;;;13.04;38.99
20037;BME280;10179;42.640;23.312;2024-03-08T12:38:24;93783.66;;;13.16;39.19
20037;BME280;10179;42.640;23.312;2024-03-08T12:40:59;93642.63;;;12.39;38.71
20037;BME280;10179;42.640;23.312;2024-03-08T12:43:24;93693.13;;;12.64;38.17
20037;BME280;10179;42.640;23.312;2024-03-08T12:45:50;93655.06;;;12.44;37.82
20037;BME280;10179;42.640;23.312;2024-03-08T12:48:16;93784.97;;;13.30;37.78
20037;BME280;10179;42.640;23.312;2024-03-08T12:50:42;93731.69;;;12.99;37.72
20037;BME280;10179;42.640;23.312;2024-03-08T12:53:13;93732.19;;;12.96;37.71
20037;BME280;10179;42.640;23.312;2024-03-08T12:55:38;93714.88;;;12.72;37.83
20037;BME280;10179;42.640;23.312;2024-03-08T12:58:05;93772.59;;;13.02;38.26
20037;BME280;10179;42.640;23.312;2024-03-08T13:00:33;93278.31;;;9.77;37.90